sensor_id;sensor_type;location;lat;lon;timestamp;P1;durP1;ratioP1;P2;durP2;ratioP2
71730;SDS011;65964;43.496;3.710;2023-10-19T00:00:36;4.40;;;1.95;;
71730;SDS011;65964;43.496;3.710;2023-10-19T00:03:05;5.28;;;2.25;;
71730;SDS011;65964;43.496;3.710;2023-10-19T00:05:32;5.10;;;2.10;;
71730;SDS011;65964;43.496;3.710;2023-10-19T00:07:58;2.75;;;1.60;;
71730;SDS011;65964;43.496;3.710;2023-10-19T00:10:25;3.08;;;1.60;;
71730;SDS011;65964;43.496;3.710;2023-10-19T00:12:56;6.30;;;2.75;;
71730;SDS011;65964;43.496;3.710;2023-10-19T00:17:58;6.32;;;2.22;;
71730;SDS011;65964;43.496;3.710;2023-10-19T00:20:43;2.70;;;1.60;;
71730;SDS011;65964;43.496;3.710;2023-10-19T00:23:23;5.78;;;1.70;;
71730;SDS011;65964;43.496;3.710;2023-10-19T00:25:54;2.42;;;1.40;;
71730;SDS011;65964;43.496;3.710;2023-10-19T00:28:20;4.90;;;1.42;;
71730;SDS011;65964;43.496;3.710;2023-10-19T00:30:47;3.17;;;1.70;;
71730;SDS011;65964;43.496;3.710;2023-10-19T00:33:15;4.00;;;1.92;;
71730;SDS011;65964;43.496;3.710;2023-10-19T00:35:43;4.78;;;2.00;;
71730;SDS011;65964;43.496;3.710;2023-10-19T00:38:28;7.30;;;2.35;;
71730;SDS011;65964;43.496;3.710;2023-10-19T00:40:59;3.28;;;1.90;;
71730;SDS011;65964;43.496;3.710;2023-10-19T00:43:35;4.05;;;1.90;;
71730;SDS011;65964;43.496;3.710;2023-10-19T00:46:03;4.95;;;1.98;;
71730;SDS011;65964;43.496;3.710;2023-10-19T00:48:34;4.38;;;1.85;;
71730;SDS011;65964;43.496;3.710;2023-10-19T00:51:00;3.47;;;1.73;;
71730;SDS011;65964;43.496;3.710;2023-10-19T00:53:37;3.90;;;2.00;;
71730;SDS011;65964;43.496;3.710;2023-10-19T00:56:04;6.18;;;2.20;;
71730;SDS011;65964;43.496;3.710;2023-10-19T00:58:34;4.55;;;2.42;;
71730;SDS011;65964;43.496;3.710;2023-10-19T01:01:02;6.60;;;2.78;;
71730;SDS011;65964;43.496;3.710;2023-10-19T01:03:31;4.82;;;1.90;;
71730;SDS011;65964;43.496;3.710;2023-10-19T01:06:01;6.68;;;2.20;;
71730;SDS011;65964;43.496;3.710;2023-10-19T01:08:30;5.25;;;1.95;;
71730;SDS011;65964;43.496;3.710;2023-10-19T01:11:06;3.90;;;2.00;;
71730;SDS011;65964;43.496;3.710;2023-10-19T01:13:35;4.72;;;2.25;;
71730;SDS011;65964;43.496;3.710;2023-10-19T01:16:01;6.93;;;2.55;;
71730;SDS011;65964;43.496;3.710;2023-10-19T01:18:29;5.70;;;2.70;;
71730;SDS011;65964;43.496;3.710;2023-10-19T01:20:58;4.25;;;2.00;;
71730;SDS011;65964;43.496;3.710;2023-10-19T01:23:29;5.40;;;2.08;;
71730;SDS011;65964;43.496;3.710;2023-10-19T01:25:57;2.95;;;2.08;;
71730;SDS011;65964;43.496;3.710;2023-10-19T01:28:24;3.92;;;2.17;;
71730;SDS011;65964;43.496;3.710;2023-10-19T01:30:53;3.75;;;2.20;;
71730;SDS011;65964;43.496;3.710;2023-10-19T01:33:20;8.57;;;2.72;;
71730;SDS011;65964;43.496;3.710;2023-10-19T01:35:47;5.68;;;2.25;;
71730;SDS011;65964;43.496;3.710;2023-10-19T01:38:33;5.43;;;2.35;;
71730;SDS011;65964;43.496;3.710;2023-10-19T01:41:03;4.93;;;2.60;;
71730;SDS011;65964;43.496;3.710;2023-10-19T01:43:45;5.70;;;2.30;;
71730;SDS011;65964;43.496;3.710;2023-10-19T01:46:12;4.40;;;2.40;;
71730;SDS011;65964;43.496;3.710;2023-10-19T01:48:43;6.03;;;2.33;;
71730;SDS011;65964;43.496;3.710;2023-10-19T01:51:10;4.45;;;2.15;;
71730;SDS011;65964;43.496;3.710;2023-10-19T01:53:39;3.80;;;1.90;;
71730;SDS011;65964;43.496;3.710;2023-10-19T01:56:08;3.65;;;2.17;;
71730;SDS011;65964;43.496;3.710;2023-10-19T01:58:41;4.22;;;2.10;;
71730;SDS011;65964;43.496;3.710;2023-10-19T02:01:08;5.05;;;2.03;;
71730;SDS011;65964;43.496;3.710;2023-10-19T02:03:37;3.38;;;2.00;;
71730;SDS011;65964;43.496;3.710;2023-10-19T02:06:07;6.32;;;1.95;;
71730;SDS011;65964;43.496;3.710;2023-10-19T02:11:13;4.15;;;1.80;;
71730;SDS011;65964;43.496;3.710;2023-10-19T02:13:43;6.53;;;2.00;;
71730;SDS011;65964;43.496;3.710;2023-10-19T02:16:11;3.53;;;1.73;;
71730;SDS011;65964;43.496;3.710;2023-10-19T02:18:37;2.65;;;1.67;;
71730;SDS011;65964;43.496;3.710;2023-10-19T02:21:03;3.58;;;1.70;;
71730;SDS011;65964;43.496;3.710;2023-10-19T02:23:31;2.78;;;1.38;;
71730;SDS011;65964;43.496;3.710;2023-10-19T02:25:59;2.72;;;1.60;;
71730;SDS011;65964;43.496;3.710;2023-10-19T02:28:25;3.78;;;1.50;;
71730;SDS011;65964;43.496;3.710;2023-10-19T02:30:56;5.35;;;1.65;;
71730;SDS011;65964;43.496;3.710;2023-10-19T02:33:22;2.47;;;1.48;;
71730;SDS011;65964;43.496;3.710;2023-10-19T02:35:51;2.88;;;1.45;;
71730;SDS011;65964;43.496;3.710;2023-10-19T02:38:17;5.03;;;2.13;;
71730;SDS011;65964;43.496;3.710;2023-10-19T02:40:43;3.78;;;1.40;;
71730;SDS011;65964;43.496;3.710;2023-10-19T02:43:11;4.90;;;1.77;;
71730;SDS011;65964;43.496;3.710;2023-10-19T02:45:37;2.45;;;1.50;;
71730;SDS011;65964;43.496;3.710;2023-10-19T02:48:03;3.85;;;1.40;;
71730;SDS011;65964;43.496;3.710;2023-10-19T02:50:29;2.30;;;1.40;;
71730;SDS011;65964;43.496;3.710;2023-10-19T02:52:56;2.05;;;1.42;;
71730;SDS011;65964;43.496;3.710;2023-10-19T02:55:22;2.13;;;1.40;;
71730;SDS011;65964;43.496;3.710;2023-10-19T02:57:50;3.25;;;1.70;;
71730;SDS011;65964;43.496;3.710;2023-10-19T03:00:16;1.92;;;1.40;;
71730;SDS011;65964;43.496;3.710;2023-10-19T03:02:45;2.42;;;1.50;;
71730;SDS011;65964;43.496;3.710;2023-10-19T03:05:11;3.38;;;1.40;;
71730;SDS011;65964;43.496;3.710;2023-10-19T03:07:42;2.35;;;1.27;;
71730;SDS011;65964;43.496;3.710;2023-10-19T03:10:09;3.38;;;1.60;;
71730;SDS011;65964;43.496;3.710;2023-10-19T03:12:49;4.07;;;1.70;;
71730;SDS011;65964;43.496;3.710;2023-10-19T03:15:15;2.80;;;1.40;;
71730;SDS011;65964;43.496;3.710;2023-10-19T03:17:42;5.57;;;1.83;;
71730;SDS011;65964;43.496;3.710;2023-10-19T03:20:08;4.30;;;1.83;;
71730;SDS011;65964;43.496;3.710;2023-10-19T03:22:41;5.13;;;2.30;;
71730;SDS011;65964;43.496;3.710;2023-10-19T03:25:08;3.30;;;1.60;;
71730;SDS011;65964;43.496;3.710;2023-10-19T03:27:55;4.50;;;1.90;;
71730;SDS011;65964;43.496;3.710;2023-10-19T03:30:21;4.97;;;2.05;;
71730;SDS011;65964;43.496;3.710;2023-10-19T03:32:50;7.32;;;2.65;;
71730;SDS011;65964;43.496;3.710;2023-10-19T03:35:16;4.80;;;1.98;;
71730;SDS011;65964;43.496;3.710;2023-10-19T03:37:42;2.63;;;1.95;;
71730;SDS011;65964;43.496;3.710;2023-10-19T03:40:12;4.15;;;2.30;;
71730;SDS011;65964;43.496;3.710;2023-10-19T03:42:42;4.32;;;2.08;;
71730;SDS011;65964;43.496;3.710;2023-10-19T03:45:11;7.47;;;2.53;;
71730;SDS011;65964;43.496;3.710;2023-10-19T03:47:39;6.97;;;2.45;;
71730;SDS011;65964;43.496;3.710;2023-10-19T03:50:08;5.65;;;2.17;;
71730;SDS011;65964;43.496;3.710;2023-10-19T03:52:40;7.40;;;2.20;;
71730;SDS011;65964;43.496;3.710;2023-10-19T03:55:07;4.25;;;2.40;;
71730;SDS011;65964;43.496;3.710;2023-10-19T03:57:37;4.05;;;2.75;;
71730;SDS011;65964;43.496;3.710;2023-10-19T04:00:11;6.00;;;2.58;;
71730;SDS011;65964;43.496;3.710;2023-10-19T04:02:41;5.03;;;2.63;;
71730;SDS011;65964;43.496;3.710;2023-10-19T04:05:08;6.88;;;2.88;;
71730;SDS011;65964;43.496;3.710;2023-10-19T04:07:46;9.45;;;4.88;;
71730;SDS011;65964;43.496;3.710;2023-10-19T04:10:12;6.70;;;3.08;;
71730;SDS011;65964;43.496;3.710;2023-10-19T04:12:54;8.73;;;3.63;;
71730;SDS011;65964;43.496;3.710;2023-10-19T04:15:20;8.05;;;3.83;;
71730;SDS011;65964;43.496;3.710;2023-10-19T04:17:47;15.38;;;3.85;;
71730;SDS011;65964;43.496;3.710;2023-10-19T04:20:18;10.05;;;3.88;;
71730;SDS011;65964;43.496;3.710;2023-10-19T04:22:44;15.30;;;5.03;;
71730;SDS011;65964;43.496;3.710;2023-10-19T04:25:11;10.90;;;4.50;;
71730;SDS011;65964;43.496;3.710;2023-10-19T04:27:50;12.20;;;4.63;;
71730;SDS011;65964;43.496;3.710;2023-10-19T04:30:17;10.60;;;4.03;;
71730;SDS011;65964;43.496;3.710;2023-10-19T04:32:46;9.45;;;3.60;;
71730;SDS011;65964;43.496;3.710;2023-10-19T04:35:13;11.02;;;3.88;;
71730;SDS011;65964;43.496;3.710;2023-10-19T04:37:49;11.07;;;4.60;;
71730;SDS011;65964;43.496;3.710;2023-10-19T04:40:17;11.68;;;3.90;;
71730;SDS011;65964;43.496;3.710;2023-10-19T04:42:43;9.30;;;4.35;;
71730;SDS011;65964;43.496;3.710;2023-10-19T04:45:09;13.73;;;4.13;;
71730;SDS011;65964;43.496;3.710;2023-10-19T04:47:36;11.95;;;4.15;;
71730;SDS011;65964;43.496;3.710;2023-10-19T04:50:03;11.43;;;4.40;;
71730;SDS011;65964;43.496;3.710;2023-10-19T04:52:30;13.75;;;4.90;;
71730;SDS011;65964;43.496;3.710;2023-10-19T04:54:57;12.93;;;4.65;;
71730;SDS011;65964;43.496;3.710;2023-10-19T04:57:23;12.75;;;4.60;;
71730;SDS011;65964;43.496;3.710;2023-10-19T04:59:51;15.45;;;5.07;;
71730;SDS011;65964;43.496;3.710;2023-10-19T05:02:17;12.95;;;4.30;;
71730;SDS011;65964;43.496;3.710;2023-10-19T05:04:43;12.30;;;4.57;;
71730;SDS011;65964;43.496;3.710;2023-10-19T05:07:10;14.00;;;5.28;;
71730;SDS011;65964;43.496;3.710;2023-10-19T05:09:42;11.18;;;4.53;;
71730;SDS011;65964;43.496;3.710;2023-10-19T05:12:08;16.52;;;5.07;;
71730;SDS011;65964;43.496;3.710;2023-10-19T05:14:41;15.32;;;5.40;;
71730;SDS011;65964;43.496;3.710;2023-10-19T05:17:08;15.80;;;5.55;;
71730;SDS011;65964;43.496;3.710;2023-10-19T05:19:35;17.33;;;5.70;;
71730;SDS011;65964;43.496;3.710;2023-10-19T05:22:02;19.15;;;6.00;;
71730;SDS011;65964;43.496;3.710;2023-10-19T05:24:28;19.88;;;5.78;;
71730;SDS011;65964;43.496;3.710;2023-10-19T05:26:55;20.48;;;5.57;;
71730;SDS011;65964;43.496;3.710;2023-10-19T05:29:21;22.42;;;6.45;;
71730;SDS011;65964;43.496;3.710;2023-10-19T05:31:51;22.30;;;6.65;;
71730;SDS011;65964;43.496;3.710;2023-10-19T05:34:23;17.95;;;6.97;;
71730;SDS011;65964;43.496;3.710;2023-10-19T05:36:49;21.20;;;7.75;;
71730;SDS011;65964;43.496;3.710;2023-10-19T05:39:16;18.50;;;6.53;;
71730;SDS011;65964;43.496;3.710;2023-10-19T05:41:42;25.33;;;7.70;;
71730;SDS011;65964;43.496;3.710;2023-10-19T05:44:09;26.02;;;6.93;;
71730;SDS011;65964;43.496;3.710;2023-10-19T05:46:35;25.85;;;8.43;;
71730;SDS011;65964;43.496;3.710;2023-10-19T05:49:01;22.80;;;7.85;;
71730;SDS011;65964;43.496;3.710;2023-10-19T05:51:29;28.10;;;8.70;;
71730;SDS011;65964;43.496;3.710;2023-10-19T05:53:55;27.38;;;8.77;;
71730;SDS011;65964;43.496;3.710;2023-10-19T05:56:27;33.63;;;9.55;;
71730;SDS011;65964;43.496;3.710;2023-10-19T05:58:53;33.75;;;9.52;;
71730;SDS011;65964;43.496;3.710;2023-10-19T06:01:19;30.25;;;9.63;;
71730;SDS011;65964;43.496;3.710;2023-10-19T06:03:47;37.95;;;10.82;;
71730;SDS011;65964;43.496;3.710;2023-10-19T06:06:13;35.17;;;10.88;;
71730;SDS011;65964;43.496;3.710;2023-10-19T06:08:40;36.60;;;10.75;;
71730;SDS011;65964;43.496;3.710;2023-10-19T06:11:06;41.47;;;10.90;;
71730;SDS011;65964;43.496;3.710;2023-10-19T06:13:32;41.97;;;11.77;;
71730;SDS011;65964;43.496;3.710;2023-10-19T06:15:58;37.78;;;11.13;;
71730;SDS011;65964;43.496;3.710;2023-10-19T06:18:24;41.08;;;11.45;;
71730;SDS011;65964;43.496;3.710;2023-10-19T06:20:50;40.15;;;12.85;;
71730;SDS011;65964;43.496;3.710;2023-10-19T06:23:19;48.17;;;13.00;;
71730;SDS011;65964;43.496;3.710;2023-10-19T06:25:45;44.53;;;12.85;;
71730;SDS011;65964;43.496;3.710;2023-10-19T06:28:12;41.75;;;12.45;;
71730;SDS011;65964;43.496;3.710;2023-10-19T06:30:38;52.03;;;12.75;;
71730;SDS011;65964;43.496;3.710;2023-10-19T06:33:07;42.10;;;12.32;;
71730;SDS011;65964;43.496;3.710;2023-10-19T06:35:34;45.80;;;11.65;;
71730;SDS011;65964;43.496;3.710;2023-10-19T06:38:02;44.42;;;11.93;;
71730;SDS011;65964;43.496;3.710;2023-10-19T06:40:34;48.05;;;12.00;;
71730;SDS011;65964;43.496;3.710;2023-10-19T06:43:01;42.08;;;11.48;;
71730;SDS011;65964;43.496;3.710;2023-10-19T06:45:28;42.38;;;11.38;;
71730;SDS011;65964;43.496;3.710;2023-10-19T06:47:57;50.97;;;11.93;;
71730;SDS011;65964;43.496;3.710;2023-10-19T06:50:25;43.85;;;10.57;;
71730;SDS011;65964;43.496;3.710;2023-10-19T06:52:52;43.38;;;10.80;;
71730;SDS011;65964;43.496;3.710;2023-10-19T06:55:19;43.58;;;11.18;;
71730;SDS011;65964;43.496;3.710;2023-10-19T06:57:49;47.97;;;11.30;;
71730;SDS011;65964;43.496;3.710;2023-10-19T07:00:16;47.97;;;11.25;;
71730;SDS011;65964;43.496;3.710;2023-10-19T07:02:46;39.83;;;10.82;;
71730;SDS011;65964;43.496;3.710;2023-10-19T07:05:13;44.13;;;10.18;;
71730;SDS011;65964;43.496;3.710;2023-10-19T07:07:43;55.30;;;11.80;;
71730;SDS011;65964;43.496;3.710;2023-10-19T07:10:10;39.13;;;10.68;;
71730;SDS011;65964;43.496;3.710;2023-10-19T07:12:37;38.22;;;9.93;;
71730;SDS011;65964;43.496;3.710;2023-10-19T07:15:04;51.88;;;10.50;;
71730;SDS011;65964;43.496;3.710;2023-10-19T07:17:32;41.90;;;10.60;;
71730;SDS011;65964;43.496;3.710;2023-10-19T07:20:05;48.17;;;9.85;;
71730;SDS011;65964;43.496;3.710;2023-10-19T07:22:34;33.95;;;9.43;;
71730;SDS011;65964;43.496;3.710;2023-10-19T07:25:04;39.42;;;10.65;;
71730;SDS011;65964;43.496;3.710;2023-10-19T07:27:31;39.83;;;9.95;;
71730;SDS011;65964;43.496;3.710;2023-10-19T07:29:57;40.70;;;10.73;;
71730;SDS011;65964;43.496;3.710;2023-10-19T07:32:24;40.10;;;10.57;;
71730;SDS011;65964;43.496;3.710;2023-10-19T07:34:49;37.55;;;10.77;;
71730;SDS011;65964;43.496;3.710;2023-10-19T07:37:15;35.33;;;10.82;;
71730;SDS011;65964;43.496;3.710;2023-10-19T07:39:47;42.65;;;11.32;;
71730;SDS011;65964;43.496;3.710;2023-10-19T07:42:16;39.30;;;10.00;;
71730;SDS011;65964;43.496;3.710;2023-10-19T07:44:42;35.00;;;9.48;;
71730;SDS011;65964;43.496;3.710;2023-10-19T07:47:07;35.17;;;9.65;;
71730;SDS011;65964;43.496;3.710;2023-10-19T07:49:35;35.05;;;8.13;;
71730;SDS011;65964;43.496;3.710;2023-10-19T07:52:04;32.70;;;7.65;;
71730;SDS011;65964;43.496;3.710;2023-10-19T07:54:34;28.52;;;8.95;;
71730;SDS011;65964;43.496;3.710;2023-10-19T07:57:00;38.88;;;7.70;;
71730;SDS011;65964;43.496;3.710;2023-10-19T07:59:30;33.40;;;7.80;;
71730;SDS011;65964;43.496;3.710;2023-10-19T08:01:59;28.30;;;7.25;;
71730;SDS011;65964;43.496;3.710;2023-10-19T08:04:29;33.45;;;8.68;;
71730;SDS011;65964;43.496;3.710;2023-10-19T08:06:56;30.60;;;7.55;;
71730;SDS011;65964;43.496;3.710;2023-10-19T08:09:22;33.75;;;8.70;;
71730;SDS011;65964;43.496;3.710;2023-10-19T08:11:50;33.85;;;7.60;;
71730;SDS011;65964;43.496;3.710;2023-10-19T08:14:24;27.67;;;7.50;;
71730;SDS011;65964;43.496;3.710;2023-10-19T08:16:51;26.95;;;6.70;;
71730;SDS011;65964;43.496;3.710;2023-10-19T08:19:17;32.63;;;7.35;;
71730;SDS011;65964;43.496;3.710;2023-10-19T08:21:44;34.88;;;7.95;;
71730;SDS011;65964;43.496;3.710;2023-10-19T08:24:10;30.05;;;6.55;;
71730;SDS011;65964;43.496;3.710;2023-10-19T08:26:42;33.85;;;7.65;;
71730;SDS011;65964;43.496;3.710;2023-10-19T08:29:08;29.27;;;7.40;;
71730;SDS011;65964;43.496;3.710;2023-10-19T08:31:40;27.75;;;7.38;;
71730;SDS011;65964;43.496;3.710;2023-10-19T08:34:07;31.30;;;7.50;;
71730;SDS011;65964;43.496;3.710;2023-10-19T08:36:36;35.83;;;8.00;;
71730;SDS011;65964;43.496;3.710;2023-10-19T08:39:06;30.23;;;7.70;;
71730;SDS011;65964;43.496;3.710;2023-10-19T08:41:33;28.70;;;7.13;;
71730;SDS011;65964;43.496;3.710;2023-10-19T08:44:04;30.58;;;8.18;;
71730;SDS011;65964;43.496;3.710;2023-10-19T08:46:36;33.50;;;8.20;;
71730;SDS011;65964;43.496;3.710;2023-10-19T08:49:05;29.67;;;8.07;;
71730;SDS011;65964;43.496;3.710;2023-10-19T08:51:35;38.72;;;9.13;;
71730;SDS011;65964;43.496;3.710;2023-10-19T08:54:02;27.80;;;7.72;;
71730;SDS011;65964;43.496;3.710;2023-10-19T08:56:31;28.45;;;8.07;;
71730;SDS011;65964;43.496;3.710;2023-10-19T08:58:58;27.02;;;6.63;;
71730;SDS011;65964;43.496;3.710;2023-10-19T09:01:26;31.38;;;7.10;;
71730;SDS011;65964;43.496;3.710;2023-10-19T09:03:53;25.10;;;7.97;;
71730;SDS011;65964;43.496;3.710;2023-10-19T09:06:20;25.67;;;6.65;;
71730;SDS011;65964;43.496;3.710;2023-10-19T09:08:47;27.23;;;6.55;;
71730;SDS011;65964;43.496;3.710;2023-10-19T09:11:14;22.45;;;6.38;;
71730;SDS011;65964;43.496;3.710;2023-10-19T09:13:47;32.08;;;6.25;;
71730;SDS011;65964;43.496;3.710;2023-10-19T09:16:18;24.65;;;6.40;;
71730;SDS011;65964;43.496;3.710;2023-10-19T09:18:45;21.67;;;6.20;;
71730;SDS011;65964;43.496;3.710;2023-10-19T09:21:14;27.80;;;6.70;;
71730;SDS011;65964;43.496;3.710;2023-10-19T09:23:53;25.60;;;6.20;;
71730;SDS011;65964;43.496;3.710;2023-10-19T09:26:20;23.20;;;5.65;;
71730;SDS011;65964;43.496;3.710;2023-10-19T09:28:47;22.20;;;5.68;;
71730;SDS011;65964;43.496;3.710;2023-10-19T09:31:17;22.33;;;5.15;;
71730;SDS011;65964;43.496;3.710;2023-10-19T09:33:44;23.77;;;5.65;;
71730;SDS011;65964;43.496;3.710;2023-10-19T09:36:12;21.55;;;6.00;;
71730;SDS011;65964;43.496;3.710;2023-10-19T09:38:45;20.33;;;5.40;;
71730;SDS011;65964;43.496;3.710;2023-10-19T09:41:17;19.90;;;4.95;;
71730;SDS011;65964;43.496;3.710;2023-10-19T09:43:47;22.40;;;5.07;;
71730;SDS011;65964;43.496;3.710;2023-10-19T09:46:25;20.35;;;5.10;;
71730;SDS011;65964;43.496;3.710;2023-10-19T09:48:53;17.45;;;4.43;;
71730;SDS011;65964;43.496;3.710;2023-10-19T09:51:20;18.20;;;4.68;;
71730;SDS011;65964;43.496;3.710;2023-10-19T09:54:11;17.50;;;4.53;;
71730;SDS011;65964;43.496;3.710;2023-10-19T09:56:42;14.98;;;3.70;;
71730;SDS011;65964;43.496;3.710;2023-10-19T09:59:26;14.65;;;4.45;;
71730;SDS011;65964;43.496;3.710;2023-10-19T10:04:37;15.43;;;4.15;;
71730;SDS011;65964;43.496;3.710;2023-10-19T10:07:06;18.65;;;4.60;;
71730;SDS011;65964;43.496;3.710;2023-10-19T10:09:35;12.85;;;4.07;;
71730;SDS011;65964;43.496;3.710;2023-10-19T10:12:15;14.07;;;3.60;;
71730;SDS011;65964;43.496;3.710;2023-10-19T10:15:02;15.20;;;3.80;;
71730;SDS011;65964;43.496;3.710;2023-10-19T10:17:36;16.17;;;4.00;;
71730;SDS011;65964;43.496;3.710;2023-10-19T10:22:44;12.45;;;3.53;;
71730;SDS011;65964;43.496;3.710;2023-10-19T10:25:30;15.70;;;3.53;;
71730;SDS011;65964;43.496;3.710;2023-10-19T10:27:56;15.52;;;3.75;;
71730;SDS011;65964;43.496;3.710;2023-10-19T10:30:22;17.70;;;3.47;;
71730;SDS011;65964;43.496;3.710;2023-10-19T10:32:50;20.42;;;3.60;;
71730;SDS011;65964;43.496;3.710;2023-10-19T10:38:07;12.70;;;3.10;;
71730;SDS011;65964;43.496;3.710;2023-10-19T10:40:46;16.92;;;3.92;;
71730;SDS011;65964;43.496;3.710;2023-10-19T10:43:16;16.67;;;4.05;;
71730;SDS011;65964;43.496;3.710;2023-10-19T10:45:42;22.60;;;4.50;;
71730;SDS011;65964;43.496;3.710;2023-10-19T10:48:12;20.10;;;4.15;;
71730;SDS011;65964;43.496;3.710;2023-10-19T10:50:38;17.50;;;3.90;;
71730;SDS011;65964;43.496;3.710;2023-10-19T10:53:06;16.75;;;3.33;;
71730;SDS011;65964;43.496;3.710;2023-10-19T10:55:32;15.55;;;3.78;;
71730;SDS011;65964;43.496;3.710;2023-10-19T10:57:58;15.82;;;3.53;;
71730;SDS011;65964;43.496;3.710;2023-10-19T11:00:25;19.85;;;3.53;;
71730;SDS011;65964;43.496;3.710;2023-10-19T11:03:07;17.08;;;3.35;;
71730;SDS011;65964;43.496;3.710;2023-10-19T11:05:35;16.52;;;3.25;;
71730;SDS011;65964;43.496;3.710;2023-10-19T11:10:41;14.82;;;2.95;;
71730;SDS011;65964;43.496;3.710;2023-10-19T11:13:11;14.18;;;2.88;;
71730;SDS011;65964;43.496;3.710;2023-10-19T11:15:38;17.92;;;3.67;;
71730;SDS011;65964;43.496;3.710;2023-10-19T11:18:05;15.63;;;3.15;;
71730;SDS011;65964;43.496;3.710;2023-10-19T11:20:32;12.27;;;2.47;;
71730;SDS011;65964;43.496;3.710;2023-10-19T11:22:58;12.48;;;2.88;;
71730;SDS011;65964;43.496;3.710;2023-10-19T11:25:28;20.30;;;3.15;;
71730;SDS011;65964;43.496;3.710;2023-10-19T11:27:58;17.70;;;3.03;;
71730;SDS011;65964;43.496;3.710;2023-10-19T11:32:50;20.50;;;3.38;;
71730;SDS011;65964;43.496;3.710;2023-10-19T11:35:26;15.80;;;3.00;;
71730;SDS011;65964;43.496;3.710;2023-10-19T11:37:56;13.85;;;2.65;;
71730;SDS011;65964;43.496;3.710;2023-10-19T11:40:22;28.58;;;4.15;;
71730;SDS011;65964;43.496;3.710;2023-10-19T11:42:49;14.52;;;2.97;;
71730;SDS011;65964;43.496;3.710;2023-10-19T11:45:16;13.15;;;2.40;;
71730;SDS011;65964;43.496;3.710;2023-10-19T11:47:45;17.15;;;2.78;;
71730;SDS011;65964;43.496;3.710;2023-10-19T11:50:11;12.63;;;2.67;;
71730;SDS011;65964;43.496;3.710;2023-10-19T11:52:39;11.60;;;2.53;;
71730;SDS011;65964;43.496;3.710;2023-10-19T11:55:05;9.70;;;2.40;;
71730;SDS011;65964;43.496;3.710;2023-10-19T11:57:33;12.05;;;2.60;;
71730;SDS011;65964;43.496;3.710;2023-10-19T12:00:00;12.63;;;2.40;;
71730;SDS011;65964;43.496;3.710;2023-10-19T12:02:30;9.40;;;2.15;;
71730;SDS011;65964;43.496;3.710;2023-10-19T12:04:56;15.25;;;2.80;;
71730;SDS011;65964;43.496;3.710;2023-10-19T12:07:22;13.18;;;2.67;;
71730;SDS011;65964;43.496;3.710;2023-10-19T12:09:48;12.73;;;2.58;;
71730;SDS011;65964;43.496;3.710;2023-10-19T12:12:14;12.85;;;2.95;;
71730;SDS011;65964;43.496;3.710;2023-10-19T12:14:40;11.98;;;2.53;;
71730;SDS011;65964;43.496;3.710;2023-10-19T12:17:06;15.52;;;2.95;;
71730;SDS011;65964;43.496;3.710;2023-10-19T12:19:32;15.15;;;2.75;;
71730;SDS011;65964;43.496;3.710;2023-10-19T12:21:59;12.20;;;2.40;;
71730;SDS011;65964;43.496;3.710;2023-10-19T12:24:27;10.38;;;2.38;;
71730;SDS011;65964;43.496;3.710;2023-10-19T12:26:54;9.65;;;2.38;;
71730;SDS011;65964;43.496;3.710;2023-10-19T12:29:20;11.73;;;2.30;;
71730;SDS011;65964;43.496;3.710;2023-10-19T12:31:49;12.18;;;2.40;;
71730;SDS011;65964;43.496;3.710;2023-10-19T12:34:16;8.75;;;2.45;;
71730;SDS011;65964;43.496;3.710;2023-10-19T12:36:42;12.07;;;2.55;;
71730;SDS011;65964;43.496;3.710;2023-10-19T12:39:11;10.30;;;2.50;;
71730;SDS011;65964;43.496;3.710;2023-10-19T12:41:57;7.97;;;2.40;;
71730;SDS011;65964;43.496;3.710;2023-10-19T12:44:23;12.40;;;2.22;;
71730;SDS011;65964;43.496;3.710;2023-10-19T12:46:49;8.43;;;2.50;;
71730;SDS011;65964;43.496;3.710;2023-10-19T12:49:17;8.60;;;2.30;;
71730;SDS011;65964;43.496;3.710;2023-10-19T12:51:50;8.18;;;2.50;;
71730;SDS011;65964;43.496;3.710;2023-10-19T12:54:17;19.75;;;3.33;;
71730;SDS011;65964;43.496;3.710;2023-10-19T12:56:43;10.02;;;2.00;;
71730;SDS011;65964;43.496;3.710;2023-10-19T12:59:09;10.10;;;3.10;;
71730;SDS011;65964;43.496;3.710;2023-10-19T13:01:35;12.50;;;2.65;;
71730;SDS011;65964;43.496;3.710;2023-10-19T13:04:01;12.43;;;2.67;;
71730;SDS011;65964;43.496;3.710;2023-10-19T13:06:39;4.60;;;1.90;;
71730;SDS011;65964;43.496;3.710;2023-10-19T13:09:05;8.52;;;2.35;;
71730;SDS011;65964;43.496;3.710;2023-10-19T13:11:34;10.82;;;2.25;;
71730;SDS011;65964;43.496;3.710;2023-10-19T13:14:00;6.65;;;2.33;;
71730;SDS011;65964;43.496;3.710;2023-10-19T13:16:26;10.38;;;3.42;;
71730;SDS011;65964;43.496;3.710;2023-10-19T13:18:52;11.50;;;2.60;;
71730;SDS011;65964;43.496;3.710;2023-10-19T13:21:19;11.88;;;2.50;;
71730;SDS011;65964;43.496;3.710;2023-10-19T13:23:52;10.35;;;2.10;;
71730;SDS011;65964;43.496;3.710;2023-10-19T13:26:18;10.77;;;2.60;;
71730;SDS011;65964;43.496;3.710;2023-10-19T13:28:45;9.63;;;2.60;;
71730;SDS011;65964;43.496;3.710;2023-10-19T13:31:12;9.80;;;2.20;;
71730;SDS011;65964;43.496;3.710;2023-10-19T13:33:41;8.35;;;2.38;;
71730;SDS011;65964;43.496;3.710;2023-10-19T13:36:09;13.50;;;2.80;;
71730;SDS011;65964;43.496;3.710;2023-10-19T13:38:35;10.95;;;2.35;;
71730;SDS011;65964;43.496;3.710;2023-10-19T13:41:07;8.95;;;2.60;;
71730;SDS011;65964;43.496;3.710;2023-10-19T13:43:35;7.82;;;2.00;;
71730;SDS011;65964;43.496;3.710;2023-10-19T13:46:01;10.60;;;2.30;;
71730;SDS011;65964;43.496;3.710;2023-10-19T13:48:27;7.88;;;2.10;;
71730;SDS011;65964;43.496;3.710;2023-10-19T13:50:53;8.43;;;1.98;;
71730;SDS011;65964;43.496;3.710;2023-10-19T13:53:25;10.25;;;2.25;;
71730;SDS011;65964;43.496;3.710;2023-10-19T13:55:51;8.93;;;2.13;;
71730;SDS011;65964;43.496;3.710;2023-10-19T13:58:17;8.13;;;2.08;;
71730;SDS011;65964;43.496;3.710;2023-10-19T14:00:43;8.85;;;2.22;;
71730;SDS011;65964;43.496;3.710;2023-10-19T14:03:12;9.05;;;2.55;;
71730;SDS011;65964;43.496;3.710;2023-10-19T14:05:39;12.32;;;2.30;;
71730;SDS011;65964;43.496;3.710;2023-10-19T14:08:08;9.43;;;2.13;;
71730;SDS011;65964;43.496;3.710;2023-10-19T14:10:34;7.95;;;1.92;;
71730;SDS011;65964;43.496;3.710;2023-10-19T14:13:00;7.53;;;2.00;;
71730;SDS011;65964;43.496;3.710;2023-10-19T14:15:26;8.00;;;2.20;;
71730;SDS011;65964;43.496;3.710;2023-10-19T14:17:58;11.15;;;2.30;;
71730;SDS011;65964;43.496;3.710;2023-10-19T14:20:25;8.52;;;2.00;;
71730;SDS011;65964;43.496;3.710;2023-10-19T14:22:53;9.82;;;2.17;;
71730;SDS011;65964;43.496;3.710;2023-10-19T14:25:20;9.60;;;2.10;;
71730;SDS011;65964;43.496;3.710;2023-10-19T14:27:48;9.30;;;2.30;;
71730;SDS011;65964;43.496;3.710;2023-10-19T14:30:15;7.90;;;2.17;;
71730;SDS011;65964;43.496;3.710;2023-10-19T14:32:42;7.40;;;2.10;;
71730;SDS011;65964;43.496;3.710;2023-10-19T14:35:09;7.90;;;2.30;;
71730;SDS011;65964;43.496;3.710;2023-10-19T14:37:39;11.60;;;2.30;;
71730;SDS011;65964;43.496;3.710;2023-10-19T14:40:11;10.52;;;2.53;;
71730;SDS011;65964;43.496;3.710;2023-10-19T14:42:39;10.32;;;2.10;;
71730;SDS011;65964;43.496;3.710;2023-10-19T14:45:10;14.15;;;2.50;;
71730;SDS011;65964;43.496;3.710;2023-10-19T14:47:38;13.95;;;2.50;;
71730;SDS011;65964;43.496;3.710;2023-10-19T14:50:11;15.43;;;3.03;;
71730;SDS011;65964;43.496;3.710;2023-10-19T14:52:39;14.88;;;2.90;;
71730;SDS011;65964;43.496;3.710;2023-10-19T14:55:05;17.40;;;3.05;;
71730;SDS011;65964;43.496;3.710;2023-10-19T14:57:32;17.80;;;3.05;;
71730;SDS011;65964;43.496;3.710;2023-10-19T14:59:58;18.58;;;3.25;;
71730;SDS011;65964;43.496;3.710;2023-10-19T15:02:44;17.02;;;3.10;;
71730;SDS011;65964;43.496;3.710;2023-10-19T15:05:13;18.58;;;3.65;;